Valtellina — ICKF — position and weather

sailwx.info

Track history (hours):
 
Tides and Currents Weather Stations Pressure Air Temp Water Temp Dewpoint Dewpoint Depression Visibility Wind Speed Wind Dir Waves Ship Positions

Valtellina

Last reported at 2017-Feb-23 18:33 UTC. Time now 2017-Feb-23 18:50 UTC.
Position N 39°14' E 002°16'.

Length 184 m; draft 7.5 m.

Type: Tanker. MMSI: 247243900.

Date/timePositionNaut miles runAvg speedWind from/ knotsBaromVisibWave heightAir tempDewpointWater temp
2017-Feb-23 18:33N 39°14' E 002°16'6 6.2
2017-Feb-23 17:33N 39°14' E 002°08'1312.9
2017-Feb-23 16:33N 39°14' E 001°52'5 5.4
2017-Feb-23 15:33N 39°14' E 001°45'1 0.9
2017-Feb-23 14:33N 39°15' E 001°46'1 0.8
2017-Feb-23 13:33N 39°15' E 001°47'1 0.8
2017-Feb-23 12:33N 39°16' E 001°47'1 0.9
2017-Feb-23 11:33N 39°16' E 001°48'1 0.8
2017-Feb-23 10:33N 39°17' E 001°49'1 1.1
2017-Feb-23 09:33N 39°17' E 001°51'1 1.1
2017-Feb-23 08:33N 39°18' E 001°52'1 1.2
2017-Feb-23 07:33N 39°19' E 001°53'1 1.1
2017-Feb-23 06:33N 39°19' E 001°54'1 1.1
2017-Feb-23 05:33N 39°20' E 001°55'1 1.2
2017-Feb-23 04:33N 39°21' E 001°56'1 0.9
2017-Feb-23 03:33N 39°21' E 001°57'1 1.0
2017-Feb-23 02:33N 39°21' E 001°58'1 1.0
2017-Feb-23 01:33N 39°21' E 001°60'1 1.0
2017-Feb-23 00:33N 39°21' E 002°01'1 1.2
2017-Feb-22 23:33N 39°21' E 002°02'1 1.1
2017-Feb-22 22:33N 39°21' E 002°04'1 1.2
2017-Feb-22 21:33N 39°21' E 002°05'1 1.3
2017-Feb-22 20:33N 39°21' E 002°07'1 1.2
2017-Feb-22 19:33N 39°21' E 002°09'1 1.0
2017-Feb-22 18:33N 39°21' E 002°10'1 1.1
2017-Feb-22 17:31N 39°20' E 002°11'1 1.2
2017-Feb-22 16:33N 39°20' E 002°13'1 1.2
2017-Feb-22 15:33N 39°20' E 002°14'1 1.0
2017-Feb-22 14:27N 39°20' E 002°16'1 1.0
2017-Feb-22 13:33N 39°19' E 002°17'1 0.8
2017-Feb-22 12:33N 39°19' E 002°18'1 0.6
2017-Feb-22 11:33N 39°19' E 002°18'1 0.7
2017-Feb-22 10:33N 39°18' E 002°19'1 0.7
2017-Feb-22 09:33N 39°18' E 002°20'1 0.6
2017-Feb-22 08:33N 39°18' E 002°21'1 0.5
2017-Feb-22 07:33N 39°18' E 002°21'1 0.6
2017-Feb-22 06:33N 39°17' E 002°21'0 0.4
2017-Feb-22 05:33N 39°17' E 002°21'1 0.6
2017-Feb-22 04:33N 39°16' E 002°21'1 0.6
2017-Feb-22 03:33N 39°16' E 002°22'1 0.7
2017-Feb-22 02:33N 39°15' E 002°22'1 0.7
2017-Feb-22 01:33N 39°14' E 002°22'1 0.5
2017-Feb-22 00:33N 39°14' E 002°22'1 0.6
2017-Feb-21 23:33N 39°13' E 002°22'1 0.6
2017-Feb-21 22:33N 39°12' E 002°22'0 0.4
2017-Feb-21 21:32N 39°12' E 002°23'3 2.8
2017-Feb-21 20:33N 39°14' E 002°25'1110.6
2017-Feb-21 19:33N 39°21' E 002°35'10 9.7
2017-Feb-21 18:33N 39°31' E 002°39'2 2.4
2017-Feb-21 17:33N 39°33' E 002°38'0 0.0
2017-Feb-21 16:33N 39°33' E 002°38'0 0.0
2017-Feb-21 15:33N 39°33' E 002°38'0 0.0
2017-Feb-21 14:33N 39°33' E 002°38'0 0.0
2017-Feb-21 13:33N 39°33' E 002°38'0 0.0
2017-Feb-21 12:33N 39°33' E 002°38'0 0.0
2017-Feb-21 11:33N 39°33' E 002°38'0 0.0
2017-Feb-21 10:33N 39°33' E 002°38'0 0.0
2017-Feb-21 09:33N 39°33' E 002°38'0 0.0
2017-Feb-21 08:33N 39°33' E 002°38'0 0.0
2017-Feb-21 07:33N 39°33' E 002°38'0 0.0
2017-Feb-21 06:33N 39°33' E 002°38'0 0.0
2017-Feb-21 05:33N 39°33' E 002°38'0 0.0
2017-Feb-21 04:33N 39°33' E 002°38'0 0.0
2017-Feb-21 03:33N 39°33' E 002°38'0 0.0
2017-Feb-21 02:33N 39°33' E 002°38'0 0.0
2017-Feb-21 01:33N 39°33' E 002°38'0 0.0
2017-Feb-21 00:33N 39°33' E 002°38'0 0.0
2017-Feb-20 23:33N 39°33' E 002°38'0 0.0
2017-Feb-20 22:33N 39°33' E 002°38'0 0.0
2017-Feb-20 21:33N 39°33' E 002°38'0 0.0
2017-Feb-20 20:33N 39°33' E 002°38'0 0.0
2017-Feb-20 19:33N 39°33' E 002°38'0 0.0
2017-Feb-20 18:33N 39°33' E 002°38'0 0.0
2017-Feb-20 17:33N 39°33' E 002°38'0 0.0
2017-Feb-20 16:33N 39°33' E 002°38'0 0.0
2017-Feb-20 15:33N 39°33' E 002°38'0 0.0
2017-Feb-20 14:33N 39°33' E 002°38'0 0.0
2017-Feb-20 13:33N 39°33' E 002°38'0 0.0
2017-Feb-20 12:33N 39°33' E 002°38'0 0.0
2017-Feb-20 11:33N 39°33' E 002°38'0 0.0
2017-Feb-20 10:33N 39°33' E 002°38'0 0.0
2017-Feb-20 09:33N 39°33' E 002°38'0 0.0
2017-Feb-20 08:33N 39°33' E 002°38'0 0.0
2017-Feb-20 07:33N 39°33' E 002°38'0 0.0
2017-Feb-20 06:33N 39°33' E 002°38'0 0.0
2017-Feb-20 05:33N 39°33' E 002°38'0 0.0
2017-Feb-20 04:33N 39°33' E 002°38'0 0.0
2017-Feb-20 03:33N 39°33' E 002°38'0 0.0
2017-Feb-20 02:33N 39°33' E 002°38'0 0.0
2017-Feb-20 01:33N 39°33' E 002°38'0 0.0
2017-Feb-20 00:33N 39°33' E 002°38'0 0.0
2017-Feb-19 23:33N 39°33' E 002°38'0 0.0
2017-Feb-19 22:33N 39°33' E 002°38'0 0.0
2017-Feb-19 21:33N 39°33' E 002°38'0 0.0
2017-Feb-19 20:33N 39°33' E 002°38'0 0.0
2017-Feb-19 19:33N 39°33' E 002°38'0 0.0
2017-Feb-19 18:33N 39°33' E 002°38'0 0.0
2017-Feb-19 17:33N 39°33' E 002°38'0 0.0
2017-Feb-19 16:33N 39°33' E 002°38'0 0.0
2017-Feb-19 15:33N 39°33' E 002°38'0 0.0
2017-Feb-19 14:30N 39°33' E 002°38'0 0.0
2017-Feb-19 13:33N 39°33' E 002°38'0 0.0
2017-Feb-19 12:33N 39°33' E 002°38'0 0.0
2017-Feb-19 11:33N 39°33' E 002°38'2 1.7
2017-Feb-19 10:34N 39°31' E 002°39'9 8.6
2017-Feb-19 09:33N 39°23' E 002°41'1211.6
2017-Feb-19 08:33N 39°12' E 002°45'1210.4
2017-Feb-19 07:26N 39°03' E 002°54'1213.3
2017-Feb-19 06:33N 39°02' E 003°09'1312.9
2017-Feb-19 05:33N 39°01' E 003°26'1312.5
2017-Feb-19 04:33N 39°01' E 003°42'23212.9
2017-Feb-18 10:33N 38°48' E 008°40'1212.0
2017-Feb-18 09:33N 38°50' E 008°55'1212.3
2017-Feb-18 08:33N 38°59' E 009°06'6 6.1
2017-Feb-18 07:33N 39°04' E 009°03'0 0.0
2017-Feb-18 06:33N 39°05' E 009°03'0 0.0
2017-Feb-18 05:33N 39°05' E 009°03'0 0.0
2017-Feb-18 04:33N 39°05' E 009°03'0 0.2
2017-Feb-18 03:33N 39°05' E 009°03'1 0.9
2017-Feb-18 02:33N 39°05' E 009°02'0 0.0
2017-Feb-18 01:33N 39°05' E 009°02'0 0.0
2017-Feb-18 00:33N 39°05' E 009°02'0 0.0
2017-Feb-17 23:33N 39°05' E 009°02'0 0.0
2017-Feb-17 22:33N 39°05' E 009°02'0 0.0
2017-Feb-17 21:33N 39°05' E 009°02'0 0.0
2017-Feb-17 20:33N 39°05' E 009°02'0 0.0
2017-Feb-17 19:33N 39°05' E 009°02'0 0.0
2017-Feb-17 18:33N 39°05' E 009°02'0 0.0
2017-Feb-17 17:33N 39°05' E 009°02'0 0.0
2017-Feb-17 16:33N 39°05' E 009°02'0 0.0
2017-Feb-17 15:33N 39°05' E 009°02'0 0.0
2017-Feb-17 14:33N 39°05' E 009°02'0 0.0
2017-Feb-17 13:33N 39°05' E 009°02'0 0.0
2017-Feb-17 12:33N 39°05' E 009°02'0 0.0
2017-Feb-17 11:33N 39°05' E 009°02'0 0.0
2017-Feb-17 10:33N 39°05' E 009°02'0 0.0
2017-Feb-17 09:33N 39°05' E 009°02'0 0.0
2017-Feb-17 08:30N 39°05' E 009°02'0 0.0
2017-Feb-17 07:33N 39°05' E 009°02'0 0.0
2017-Feb-17 06:33N 39°05' E 009°02'0 0.0
2017-Feb-17 05:33N 39°05' E 009°02'0 0.0
2017-Feb-17 04:33N 39°05' E 009°02'0 0.0
2017-Feb-17 03:33N 39°05' E 009°02'0 0.0
2017-Feb-17 02:33N 39°05' E 009°02'0 0.0
2017-Feb-17 01:33N 39°05' E 009°02'1 1.2
2017-Feb-17 00:32N 39°05' E 009°03'1 1.1
2017-Feb-16 23:33N 39°04' E 009°04'0 0.1
2017-Feb-16 22:33N 39°04' E 009°04'0 0.1
2017-Feb-16 21:33N 39°04' E 009°04'0 0.0
2017-Feb-16 20:33N 39°04' E 009°04'0 0.0
2017-Feb-16 19:33N 39°04' E 009°04'0 0.0
2017-Feb-16 18:33N 39°04' E 009°04'0 0.0
2017-Feb-16 17:33N 39°04' E 009°04'0 0.0
2017-Feb-16 16:33N 39°04' E 009°04'0 0.0
2017-Feb-16 15:33N 39°04' E 009°04'0 0.0
2017-Feb-16 14:33N 39°04' E 009°04'0 0.0
2017-Feb-16 13:33N 39°04' E 009°04'0 0.0
2017-Feb-16 12:33N 39°04' E 009°04'0 0.0
2017-Feb-16 11:33N 39°04' E 009°04'0 0.0
2017-Feb-16 10:30N 39°04' E 009°04'0 0.0
2017-Feb-16 09:33N 39°04' E 009°04'0 0.0
2017-Feb-16 08:33N 39°04' E 009°04'0 0.0
2017-Feb-16 07:33N 39°04' E 009°04'0 0.0
2017-Feb-16 06:33N 39°04' E 009°04'0 0.0
2017-Feb-16 05:33N 39°04' E 009°04'0 0.0
2017-Feb-16 04:33N 39°04' E 009°04'0 0.1
2017-Feb-16 03:33N 39°04' E 009°04'0 0.0
2017-Feb-16 02:33N 39°04' E 009°04'0 0.1
2017-Feb-16 01:33N 39°04' E 009°04'0 0.1
2017-Feb-16 00:33N 39°04' E 009°04'0 0.0
2017-Feb-15 23:33N 39°04' E 009°04'0 0.0
2017-Feb-15 22:33N 39°04' E 009°04'0 0.0
2017-Feb-15 21:33N 39°04' E 009°04'0 0.0
2017-Feb-15 20:33N 39°04' E 009°04'1 1.0
2017-Feb-15 19:33N 39°03' E 009°05'1110.8
2017-Feb-15 18:33N 39°01' E 009°19'23412.9
2017-Feb-15 00:25N 36°59' E 013°31'1213.5
2017-Feb-14 23:33N 36°51' E 013°43'1313.3
2017-Feb-14 22:33N 36°43' E 013°56'1313.5
2017-Feb-14 21:33N 36°35' E 014°09'1313.4
2017-Feb-14 20:33N 36°26' E 014°22'1413.5
2017-Feb-14 19:33N 36°17' E 014°35'2712.8
2017-Feb-14 17:29N 35°59' E 014°58'  
Track history (hours):
 
Tides and Currents Weather Stations Pressure Air Temp Water Temp Dewpoint Dewpoint Depression Visibility Wind Speed Wind Dir Waves Ship Positions

Valtellina

Last reported at 2017-Feb-23 18:33 UTC. Time now 2017-Feb-23 18:50 UTC.
Position N 39°14' E 002°16'.

Length 184 m; draft 7.5 m.

Type: Tanker. MMSI: 247243900.

Date/timePositionNaut miles runAvg speedWind from/ knotsBaromVisibWave heightAir tempDewpointWater temp
2017-Feb-23 18:33N 39°14' E 002°16'6 6.2
2017-Feb-23 17:33N 39°14' E 002°08'1312.9
2017-Feb-23 16:33N 39°14' E 001°52'5 5.4
2017-Feb-23 15:33N 39°14' E 001°45'1 0.9
2017-Feb-23 14:33N 39°15' E 001°46'1 0.8
2017-Feb-23 13:33N 39°15' E 001°47'1 0.8
2017-Feb-23 12:33N 39°16' E 001°47'1 0.9
2017-Feb-23 11:33N 39°16' E 001°48'1 0.8
2017-Feb-23 10:33N 39°17' E 001°49'1 1.1
2017-Feb-23 09:33N 39°17' E 001°51'1 1.1
2017-Feb-23 08:33N 39°18' E 001°52'1 1.2
2017-Feb-23 07:33N 39°19' E 001°53'1 1.1
2017-Feb-23 06:33N 39°19' E 001°54'1 1.1
2017-Feb-23 05:33N 39°20' E 001°55'1 1.2
2017-Feb-23 04:33N 39°21' E 001°56'1 0.9
2017-Feb-23 03:33N 39°21' E 001°57'1 1.0
2017-Feb-23 02:33N 39°21' E 001°58'1 1.0
2017-Feb-23 01:33N 39°21' E 001°60'1 1.0
2017-Feb-23 00:33N 39°21' E 002°01'1 1.2
2017-Feb-22 23:33N 39°21' E 002°02'1 1.1
2017-Feb-22 22:33N 39°21' E 002°04'1 1.2
2017-Feb-22 21:33N 39°21' E 002°05'1 1.3
2017-Feb-22 20:33N 39°21' E 002°07'1 1.2
2017-Feb-22 19:33N 39°21' E 002°09'1 1.0
2017-Feb-22 18:33N 39°21' E 002°10'1 1.1
2017-Feb-22 17:31N 39°20' E 002°11'1 1.2
2017-Feb-22 16:33N 39°20' E 002°13'1 1.2
2017-Feb-22 15:33N 39°20' E 002°14'1 1.0
2017-Feb-22 14:27N 39°20' E 002°16'1 1.0
2017-Feb-22 13:33N 39°19' E 002°17'1 0.8
2017-Feb-22 12:33N 39°19' E 002°18'1 0.6
2017-Feb-22 11:33N 39°19' E 002°18'1 0.7
2017-Feb-22 10:33N 39°18' E 002°19'1 0.7
2017-Feb-22 09:33N 39°18' E 002°20'1 0.6
2017-Feb-22 08:33N 39°18' E 002°21'1 0.5
2017-Feb-22 07:33N 39°18' E 002°21'1 0.6
2017-Feb-22 06:33N 39°17' E 002°21'0 0.4
2017-Feb-22 05:33N 39°17' E 002°21'1 0.6
2017-Feb-22 04:33N 39°16' E 002°21'1 0.6
2017-Feb-22 03:33N 39°16' E 002°22'1 0.7
2017-Feb-22 02:33N 39°15' E 002°22'1 0.7
2017-Feb-22 01:33N 39°14' E 002°22'1 0.5
2017-Feb-22 00:33N 39°14' E 002°22'1 0.6
2017-Feb-21 23:33N 39°13' E 002°22'1 0.6
2017-Feb-21 22:33N 39°12' E 002°22'0 0.4
2017-Feb-21 21:32N 39°12' E 002°23'3 2.8
2017-Feb-21 20:33N 39°14' E 002°25'1110.6
2017-Feb-21 19:33N 39°21' E 002°35'10 9.7
2017-Feb-21 18:33N 39°31' E 002°39'2 2.4
2017-Feb-21 17:33N 39°33' E 002°38'0 0.0
2017-Feb-21 16:33N 39°33' E 002°38'0 0.0
2017-Feb-21 15:33N 39°33' E 002°38'0 0.0
2017-Feb-21 14:33N 39°33' E 002°38'0 0.0
2017-Feb-21 13:33N 39°33' E 002°38'0 0.0
2017-Feb-21 12:33N 39°33' E 002°38'0 0.0
2017-Feb-21 11:33N 39°33' E 002°38'0 0.0
2017-Feb-21 10:33N 39°33' E 002°38'0 0.0
2017-Feb-21 09:33N 39°33' E 002°38'0 0.0
2017-Feb-21 08:33N 39°33' E 002°38'0 0.0
2017-Feb-21 07:33N 39°33' E 002°38'0 0.0
2017-Feb-21 06:33N 39°33' E 002°38'0 0.0
2017-Feb-21 05:33N 39°33' E 002°38'0 0.0
2017-Feb-21 04:33N 39°33' E 002°38'0 0.0
2017-Feb-21 03:33N 39°33' E 002°38'0 0.0
2017-Feb-21 02:33N 39°33' E 002°38'0 0.0
2017-Feb-21 01:33N 39°33' E 002°38'0 0.0
2017-Feb-21 00:33N 39°33' E 002°38'0 0.0
2017-Feb-20 23:33N 39°33' E 002°38'0 0.0
2017-Feb-20 22:33N 39°33' E 002°38'0 0.0
2017-Feb-20 21:33N 39°33' E 002°38'0 0.0
2017-Feb-20 20:33N 39°33' E 002°38'0 0.0
2017-Feb-20 19:33N 39°33' E 002°38'0 0.0
2017-Feb-20 18:33N 39°33' E 002°38'0 0.0
2017-Feb-20 17:33N 39°33' E 002°38'0 0.0
2017-Feb-20 16:33N 39°33' E 002°38'0 0.0
2017-Feb-20 15:33N 39°33' E 002°38'0 0.0
2017-Feb-20 14:33N 39°33' E 002°38'0 0.0
2017-Feb-20 13:33N 39°33' E 002°38'0 0.0
2017-Feb-20 12:33N 39°33' E 002°38'0 0.0
2017-Feb-20 11:33N 39°33' E 002°38'0 0.0
2017-Feb-20 10:33N 39°33' E 002°38'0 0.0
2017-Feb-20 09:33N 39°33' E 002°38'0 0.0
2017-Feb-20 08:33N 39°33' E 002°38'0 0.0
2017-Feb-20 07:33N 39°33' E 002°38'0 0.0
2017-Feb-20 06:33N 39°33' E 002°38'0 0.0
2017-Feb-20 05:33N 39°33' E 002°38'0 0.0
2017-Feb-20 04:33N 39°33' E 002°38'0 0.0
2017-Feb-20 03:33N 39°33' E 002°38'0 0.0
2017-Feb-20 02:33N 39°33' E 002°38'0 0.0
2017-Feb-20 01:33N 39°33' E 002°38'0 0.0
2017-Feb-20 00:33N 39°33' E 002°38'0 0.0
2017-Feb-19 23:33N 39°33' E 002°38'0 0.0
2017-Feb-19 22:33N 39°33' E 002°38'0 0.0
2017-Feb-19 21:33N 39°33' E 002°38'0 0.0
2017-Feb-19 20:33N 39°33' E 002°38'0 0.0
2017-Feb-19 19:33N 39°33' E 002°38'0 0.0
2017-Feb-19 18:33N 39°33' E 002°38'0 0.0
2017-Feb-19 17:33N 39°33' E 002°38'0 0.0
2017-Feb-19 16:33N 39°33' E 002°38'0 0.0
2017-Feb-19 15:33N 39°33' E 002°38'0 0.0
2017-Feb-19 14:30N 39°33' E 002°38'0 0.0
2017-Feb-19 13:33N 39°33' E 002°38'0 0.0
2017-Feb-19 12:33N 39°33' E 002°38'0 0.0
2017-Feb-19 11:33N 39°33' E 002°38'2 1.7
2017-Feb-19 10:34N 39°31' E 002°39'9 8.6
2017-Feb-19 09:33N 39°23' E 002°41'1211.6
2017-Feb-19 08:33N 39°12' E 002°45'1210.4
2017-Feb-19 07:26N 39°03' E 002°54'1213.3
2017-Feb-19 06:33N 39°02' E 003°09'1312.9
2017-Feb-19 05:33N 39°01' E 003°26'1312.5
2017-Feb-19 04:33N 39°01' E 003°42'23212.9
2017-Feb-18 10:33N 38°48' E 008°40'1212.0
2017-Feb-18 09:33N 38°50' E 008°55'1212.3
2017-Feb-18 08:33N 38°59' E 009°06'6 6.1
2017-Feb-18 07:33N 39°04' E 009°03'0 0.0
2017-Feb-18 06:33N 39°05' E 009°03'0 0.0
2017-Feb-18 05:33N 39°05' E 009°03'0 0.0
2017-Feb-18 04:33N 39°05' E 009°03'0 0.2
2017-Feb-18 03:33N 39°05' E 009°03'1 0.9
2017-Feb-18 02:33N 39°05' E 009°02'0 0.0
2017-Feb-18 01:33N 39°05' E 009°02'0 0.0
2017-Feb-18 00:33N 39°05' E 009°02'0 0.0
2017-Feb-17 23:33N 39°05' E 009°02'0 0.0
2017-Feb-17 22:33N 39°05' E 009°02'0 0.0
2017-Feb-17 21:33N 39°05' E 009°02'0 0.0
2017-Feb-17 20:33N 39°05' E 009°02'0 0.0
2017-Feb-17 19:33N 39°05' E 009°02'0 0.0
2017-Feb-17 18:33N 39°05' E 009°02'0 0.0
2017-Feb-17 17:33N 39°05' E 009°02'0 0.0
2017-Feb-17 16:33N 39°05' E 009°02'0 0.0
2017-Feb-17 15:33N 39°05' E 009°02'0 0.0
2017-Feb-17 14:33N 39°05' E 009°02'0 0.0
2017-Feb-17 13:33N 39°05' E 009°02'0 0.0
2017-Feb-17 12:33N 39°05' E 009°02'0 0.0
2017-Feb-17 11:33N 39°05' E 009°02'0 0.0
2017-Feb-17 10:33N 39°05' E 009°02'0 0.0
2017-Feb-17 09:33N 39°05' E 009°02'0 0.0
2017-Feb-17 08:30N 39°05' E 009°02'0 0.0
2017-Feb-17 07:33N 39°05' E 009°02'0 0.0
2017-Feb-17 06:33N 39°05' E 009°02'0 0.0
2017-Feb-17 05:33N 39°05' E 009°02'0 0.0
2017-Feb-17 04:33N 39°05' E 009°02'0 0.0
2017-Feb-17 03:33N 39°05' E 009°02'0 0.0
2017-Feb-17 02:33N 39°05' E 009°02'0 0.0
2017-Feb-17 01:33N 39°05' E 009°02'1 1.2
2017-Feb-17 00:32N 39°05' E 009°03'1 1.1
2017-Feb-16 23:33N 39°04' E 009°04'0 0.1
2017-Feb-16 22:33N 39°04' E 009°04'0 0.1
2017-Feb-16 21:33N 39°04' E 009°04'0 0.0
2017-Feb-16 20:33N 39°04' E 009°04'0 0.0
2017-Feb-16 19:33N 39°04' E 009°04'0 0.0
2017-Feb-16 18:33N 39°04' E 009°04'0 0.0
2017-Feb-16 17:33N 39°04' E 009°04'0 0.0
2017-Feb-16 16:33N 39°04' E 009°04'0 0.0
2017-Feb-16 15:33N 39°04' E 009°04'0 0.0
2017-Feb-16 14:33N 39°04' E 009°04'0 0.0
2017-Feb-16 13:33N 39°04' E 009°04'0 0.0
2017-Feb-16 12:33N 39°04' E 009°04'0 0.0
2017-Feb-16 11:33N 39°04' E 009°04'0 0.0
2017-Feb-16 10:30N 39°04' E 009°04'0 0.0
2017-Feb-16 09:33N 39°04' E 009°04'0 0.0
2017-Feb-16 08:33N 39°04' E 009°04'0 0.0
2017-Feb-16 07:33N 39°04' E 009°04'0 0.0
2017-Feb-16 06:33N 39°04' E 009°04'0 0.0
2017-Feb-16 05:33N 39°04' E 009°04'0 0.0
2017-Feb-16 04:33N 39°04' E 009°04'0 0.1
2017-Feb-16 03:33N 39°04' E 009°04'0 0.0
2017-Feb-16 02:33N 39°04' E 009°04'0 0.1
2017-Feb-16 01:33N 39°04' E 009°04'0 0.1
2017-Feb-16 00:33N 39°04' E 009°04'0 0.0
2017-Feb-15 23:33N 39°04' E 009°04'0 0.0
2017-Feb-15 22:33N 39°04' E 009°04'0 0.0
2017-Feb-15 21:33N 39°04' E 009°04'0 0.0
2017-Feb-15 20:33N 39°04' E 009°04'1 1.0
2017-Feb-15 19:33N 39°03' E 009°05'1110.8
2017-Feb-15 18:33N 39°01' E 009°19'23412.9
2017-Feb-15 00:25N 36°59' E 013°31'1213.5
2017-Feb-14 23:33N 36°51' E 013°43'1313.3
2017-Feb-14 22:33N 36°43' E 013°56'1313.5
2017-Feb-14 21:33N 36°35' E 014°09'1313.4
2017-Feb-14 20:33N 36°26' E 014°22'1413.5
2017-Feb-14 19:33N 36°17' E 014°35'2712.8
2017-Feb-14 17:29N 35°59' E 014°58'  

Dump ship's entire track history